createdAt,value
2022-10-15T00:00:37.473Z,36.17
2022-10-15T00:03:05.775Z,35.77
2022-10-15T00:05:34.881Z,38.47
2022-10-15T00:08:03.256Z,38.50
2022-10-15T00:10:31.782Z,37.60
2022-10-15T00:13:00.294Z,38.47
2022-10-15T00:15:29.833Z,37.03
2022-10-15T00:17:59.911Z,36.53
2022-10-15T00:20:28.346Z,37.60
2022-10-15T00:22:56.852Z,36.10
2022-10-15T00:25:25.155Z,35.80
2022-10-15T00:27:53.435Z,40.00
2022-10-15T00:30:22.459Z,39.63
2022-10-15T00:32:53.636Z,36.10
2022-10-15T00:35:23.302Z,34.07
2022-10-15T00:37:52.150Z,34.47
2022-10-15T00:40:21.443Z,37.37
2022-10-15T00:42:49.745Z,41.87
2022-10-15T00:45:18.034Z,36.10
2022-10-15T00:47:46.803Z,37.40
2022-10-15T00:50:15.756Z,38.30
2022-10-15T00:52:46.519Z,36.80
2022-10-15T00:55:16.198Z,39.10
2022-10-15T00:57:44.676Z,37.80
2022-10-15T01:00:15.173Z,39.00
2022-10-15T01:02:43.600Z,38.37
2022-10-15T01:05:11.969Z,35.73
2022-10-15T01:07:40.278Z,39.00
2022-10-15T01:10:10.526Z,40.00
2022-10-15T01:12:41.413Z,45.77
2022-10-15T01:15:10.795Z,39.23
2022-10-15T01:17:40.907Z,44.87
2022-10-15T01:20:22.765Z,49.30
2022-10-15T01:22:54.347Z,44.60
2022-10-15T01:25:28.364Z,45.60
2022-10-15T01:27:57.052Z,45.17
2022-10-15T01:30:30.273Z,44.80
2022-10-15T01:33:11.319Z,43.47
2022-10-15T01:35:42.999Z,48.83
2022-10-15T01:38:11.968Z,49.33
2022-10-15T01:40:40.445Z,44.27
2022-10-15T01:43:09.696Z,43.70
2022-10-15T01:45:40.912Z,49.37
2022-10-15T01:48:09.555Z,40.80
2022-10-15T01:50:37.912Z,45.93
2022-10-15T01:53:06.257Z,46.97
2022-10-15T01:55:34.534Z,47.03
2022-10-15T01:58:02.755Z,48.43
2022-10-15T02:00:31.116Z,48.17
2022-10-15T02:03:02.413Z,44.27
2022-10-15T02:05:31.699Z,41.33
2022-10-15T02:08:01.143Z,44.10
2022-10-15T02:10:29.722Z,43.63
2022-10-15T02:13:01.941Z,46.30
2022-10-15T02:15:32.217Z,46.23
2022-10-15T02:18:02.538Z,50.97
2022-10-15T02:20:32.413Z,49.27
2022-10-15T02:23:01.820Z,47.30
2022-10-15T02:25:30.171Z,48.60
2022-10-15T02:27:58.715Z,48.67
2022-10-15T02:30:26.999Z,48.53
2022-10-15T02:32:56.663Z,47.83
2022-10-15T02:35:26.537Z,46.00
2022-10-15T02:37:55.105Z,46.57
2022-10-15T02:40:23.749Z,49.20
2022-10-15T02:42:52.074Z,54.90
2022-10-15T02:45:20.367Z,51.20
2022-10-15T02:47:48.629Z,49.53
2022-10-15T02:50:16.899Z,47.73
2022-10-15T02:52:46.761Z,45.50
2022-10-15T02:55:15.239Z,49.60
2022-10-15T02:57:43.679Z,47.43
2022-10-15T03:00:12.498Z,47.10
2022-10-15T03:02:40.887Z,45.67
2022-10-15T03:05:09.662Z,50.13
2022-10-15T03:07:38.008Z,49.60
2022-10-15T03:10:08.228Z,48.07
2022-10-15T03:12:36.557Z,48.23
2022-10-15T03:15:05.101Z,53.13
2022-10-15T03:17:33.545Z,47.10
2022-10-15T03:20:01.974Z,44.87
2022-10-15T03:22:30.237Z,47.07
2022-10-15T03:24:58.588Z,45.40
2022-10-15T03:27:28.188Z,45.27
2022-10-15T03:29:56.512Z,47.47
2022-10-15T03:32:24.919Z,43.43
2022-10-15T03:34:53.260Z,45.33
2022-10-15T03:37:21.852Z,47.37
2022-10-15T03:39:50.430Z,43.40
2022-10-15T03:42:18.805Z,50.10
2022-10-15T03:44:48.539Z,45.40
2022-10-15T03:47:16.810Z,48.27
2022-10-15T03:49:45.047Z,48.10
2022-10-15T03:52:13.320Z,47.17
2022-10-15T03:54:41.572Z,52.07
2022-10-15T03:57:10.056Z,53.97
2022-10-15T03:59:39.093Z,50.20
2022-10-15T04:02:08.736Z,49.17
2022-10-15T04:04:37.000Z,46.50
2022-10-15T04:07:05.279Z,50.17
2022-10-15T04:09:33.556Z,45.50
2022-10-15T04:12:01.795Z,45.63
2022-10-15T04:14:30.101Z,47.40
2022-10-15T04:16:59.014Z,47.47
2022-10-15T04:19:28.885Z,51.20
2022-10-15T04:21:57.362Z,51.87
2022-10-15T04:24:25.795Z,47.07
2022-10-15T04:26:54.136Z,43.63
2022-10-15T04:29:22.461Z,48.07
2022-10-15T04:31:50.893Z,45.23
2022-10-15T04:34:19.259Z,46.50
2022-10-15T04:36:48.893Z,44.43
2022-10-15T04:39:17.147Z,47.70
2022-10-15T04:41:45.484Z,45.33
2022-10-15T04:44:13.737Z,45.57
2022-10-15T04:46:42.159Z,41.87
2022-10-15T04:49:10.639Z,42.60
2022-10-15T04:51:39.101Z,41.23
2022-10-15T04:54:08.813Z,44.40
2022-10-15T04:56:37.122Z,45.97
2022-10-15T04:59:07.926Z,41.77
2022-10-15T05:01:36.221Z,46.20
2022-10-15T05:04:04.533Z,46.63
2022-10-15T05:06:33.852Z,44.23
2022-10-15T05:09:02.738Z,46.37
2022-10-15T05:11:32.478Z,46.07
2022-10-15T05:14:00.933Z,49.07
2022-10-15T05:16:29.655Z,47.73
2022-10-15T05:18:58.658Z,50.20
2022-10-15T05:21:27.143Z,50.33
2022-10-15T05:23:55.508Z,46.90
2022-10-15T05:26:24.213Z,48.07
2022-10-15T05:28:54.074Z,45.30
2022-10-15T05:31:22.723Z,48.97
2022-10-15T05:33:51.971Z,42.13
2022-10-15T05:36:20.712Z,44.60
2022-10-15T05:38:51.312Z,43.03
2022-10-15T05:41:19.588Z,39.47
2022-10-15T05:43:48.625Z,40.27
2022-10-15T05:46:18.251Z,40.80
2022-10-15T05:48:49.641Z,42.77
2022-10-15T05:51:18.181Z,44.17
2022-10-15T05:53:46.663Z,42.37
2022-10-15T05:56:15.173Z,41.90
2022-10-15T05:58:43.515Z,42.77
2022-10-15T06:01:12.283Z,42.67
2022-10-15T06:03:42.005Z,45.03
2022-10-15T06:06:17.130Z,45.43
2022-10-15T06:08:45.554Z,43.07
2022-10-15T06:11:14.067Z,39.97
2022-10-15T06:13:42.761Z,42.30
2022-10-15T06:16:11.059Z,40.10
2022-10-15T06:18:39.659Z,37.80
2022-10-15T06:21:09.543Z,41.47
2022-10-15T06:23:38.076Z,40.20
2022-10-15T06:26:06.555Z,38.30
2022-10-15T06:28:34.991Z,36.23
2022-10-15T06:31:03.362Z,38.07
2022-10-15T06:33:31.855Z,38.40
2022-10-15T06:36:02.912Z,34.10
2022-10-15T06:38:32.535Z,41.57
2022-10-15T06:41:00.768Z,38.97
2022-10-15T06:43:31.174Z,39.57
2022-10-15T06:46:01.153Z,43.90
2022-10-15T06:48:29.523Z,41.63
2022-10-15T06:50:59.475Z,48.97
2022-10-15T06:53:28.108Z,44.83
2022-10-15T06:55:59.615Z,48.27
2022-10-15T06:58:27.914Z,50.83
2022-10-15T07:01:01.120Z,52.67
2022-10-15T07:03:29.504Z,57.87
2022-10-15T07:05:57.917Z,61.47
2022-10-15T07:08:27.015Z,69.10
2022-10-15T07:10:55.409Z,68.30
2022-10-15T07:13:25.188Z,66.87
2022-10-15T07:15:55.897Z,68.17
2022-10-15T07:18:24.186Z,69.97
2022-10-15T07:20:52.495Z,59.13
2022-10-15T07:23:24.117Z,60.50
2022-10-15T07:25:55.558Z,56.37
2022-10-15T07:28:25.471Z,56.80
2022-10-15T07:30:55.625Z,50.73
2022-10-15T07:33:23.909Z,43.83
2022-10-15T07:35:52.180Z,40.23
2022-10-15T07:38:20.558Z,38.77
2022-10-15T07:40:48.967Z,41.67
2022-10-15T07:43:17.353Z,38.63
2022-10-15T07:45:50.762Z,35.30
2022-10-15T07:48:20.200Z,39.77
2022-10-15T07:50:48.614Z,36.27
2022-10-15T07:53:21.977Z,33.07
2022-10-15T07:55:51.224Z,36.63
2022-10-15T07:58:19.576Z,34.33
2022-10-15T08:00:47.867Z,36.60
2022-10-15T08:03:17.777Z,37.90
2022-10-15T08:05:46.058Z,35.50
2022-10-15T08:08:14.417Z,38.07
2022-10-15T08:10:42.675Z,37.33
2022-10-15T08:13:11.395Z,39.80
2022-10-15T08:15:40.733Z,41.13
2022-10-15T08:18:10.042Z,43.10
2022-10-15T08:20:39.802Z,41.40
2022-10-15T08:23:08.219Z,44.67
2022-10-15T08:25:36.549Z,42.23
2022-10-15T08:28:05.093Z,39.50
2022-10-15T08:30:33.467Z,42.90
2022-10-15T08:33:01.793Z,42.90
2022-10-15T08:35:35.249Z,43.97
2022-10-15T08:38:05.051Z,40.50
2022-10-15T08:40:33.455Z,47.13
2022-10-15T08:43:01.763Z,47.53
2022-10-15T08:45:30.346Z,48.67
2022-10-15T08:47:59.473Z,42.27
2022-10-15T08:50:28.554Z,43.57
2022-10-15T08:52:57.155Z,45.27
2022-10-15T08:55:28.617Z,45.60
2022-10-15T08:57:58.728Z,45.40
2022-10-15T09:00:27.414Z,38.87
2022-10-15T09:02:58.328Z,37.53
2022-10-15T09:05:28.868Z,37.17
2022-10-15T09:07:58.609Z,31.43
2022-10-15T09:10:30.141Z,33.33
2022-10-15T09:13:00.240Z,34.90
2022-10-15T09:15:28.632Z,36.77
2022-10-15T09:17:57.181Z,34.70
2022-10-15T09:20:26.934Z,38.10
2022-10-15T09:22:55.253Z,38.10
2022-10-15T09:25:26.483Z,40.70
2022-10-15T09:27:58.343Z,37.13
2022-10-15T09:30:29.544Z,39.13
2022-10-15T09:32:58.787Z,34.80
2022-10-15T09:35:28.425Z,34.93
2022-10-15T09:38:02.282Z,34.83
2022-10-15T09:40:39.303Z,33.10
2022-10-15T09:43:08.972Z,33.03
2022-10-15T09:45:37.390Z,34.43
2022-10-15T09:48:07.900Z,32.90
2022-10-15T09:50:37.872Z,34.03
2022-10-15T09:53:07.790Z,32.13
2022-10-15T09:55:37.296Z,34.30
2022-10-15T09:58:06.968Z,30.63
2022-10-15T10:00:56.088Z,28.43
2022-10-15T10:03:24.922Z,28.03
2022-10-15T10:05:53.262Z,26.63
2022-10-15T10:08:22.886Z,26.43
2022-10-15T10:10:55.846Z,24.73
2022-10-15T10:13:25.506Z,22.93
2022-10-15T10:15:58.412Z,23.80
2022-10-15T10:18:28.269Z,21.77
2022-10-15T10:20:59.159Z,20.27
2022-10-15T10:23:27.915Z,21.57
2022-10-15T10:25:56.870Z,19.10
2022-10-15T10:28:27.681Z,17.73
2022-10-15T10:31:04.016Z,18.97
2022-10-15T10:33:33.176Z,19.30
2022-10-15T10:36:01.696Z,15.13
2022-10-15T10:38:31.978Z,14.83
2022-10-15T10:41:05.297Z,15.27
2022-10-15T10:43:38.975Z,17.27
2022-10-15T10:46:19.338Z,16.10
2022-10-15T10:48:48.093Z,15.43
2022-10-15T10:51:19.225Z,15.20
2022-10-15T10:53:52.306Z,14.50
2022-10-15T10:56:23.234Z,13.83
2022-10-15T10:58:53.894Z,14.53
2022-10-15T11:01:23.584Z,13.83
2022-10-15T11:03:51.914Z,14.37
2022-10-15T11:06:29.280Z,12.87
2022-10-15T11:09:00.742Z,11.90
2022-10-15T11:11:31.482Z,11.93
2022-10-15T11:14:02.115Z,11.30
2022-10-15T11:16:34.454Z,15.70
2022-10-15T11:19:13.824Z,12.93
2022-10-15T11:21:51.833Z,13.00
2022-10-15T11:24:21.964Z,13.53
2022-10-15T11:27:11.775Z,11.13
2022-10-15T11:29:42.026Z,12.60
2022-10-15T11:32:17.174Z,13.77
2022-10-15T11:34:48.907Z,15.40
2022-10-15T11:37:20.866Z,13.73
2022-10-15T11:39:56.212Z,15.40
2022-10-15T11:42:26.044Z,15.13
2022-10-15T11:45:01.065Z,12.73
2022-10-15T11:47:33.270Z,11.97
2022-10-15T11:50:05.283Z,12.63
2022-10-15T11:52:37.680Z,12.87
2022-10-15T11:55:06.331Z,12.40
2022-10-15T11:57:34.802Z,13.47
2022-10-15T12:00:03.562Z,12.73
2022-10-15T12:02:33.606Z,12.87
2022-10-15T12:05:02.607Z,12.33
2022-10-15T12:07:35.729Z,11.50
2022-10-15T12:10:06.993Z,10.10
2022-10-15T12:12:36.027Z,10.13
2022-10-15T12:15:16.505Z,10.03
2022-10-15T12:17:48.954Z,9.50
2022-10-15T12:20:17.796Z,11.17
2022-10-15T12:22:55.537Z,11.10
2022-10-15T12:25:41.251Z,10.33
2022-10-15T12:28:14.414Z,11.30
2022-10-15T12:30:42.693Z,9.63
2022-10-15T12:33:25.201Z,9.73
2022-10-15T12:35:56.754Z,8.00
2022-10-15T12:38:27.395Z,8.00
2022-10-15T12:40:59.683Z,7.23
2022-10-15T12:43:27.979Z,8.27
2022-10-15T12:45:56.854Z,5.83
2022-10-15T12:48:33.547Z,4.50
2022-10-15T12:51:20.326Z,4.57
2022-10-15T12:53:48.710Z,5.63
2022-10-15T12:56:23.885Z,4.40
2022-10-15T12:58:52.331Z,3.77
2022-10-15T13:01:29.553Z,2.43
2022-10-15T13:03:59.309Z,4.67
2022-10-15T13:06:28.837Z,2.80
2022-10-15T13:08:57.520Z,2.37
2022-10-15T13:11:27.345Z,1.53
2022-10-15T13:13:57.169Z,5.07
2022-10-15T13:16:25.599Z,1.73
2022-10-15T13:18:55.295Z,4.33
2022-10-15T13:21:25.045Z,7.43
2022-10-15T13:23:53.364Z,3.33
2022-10-15T13:26:22.729Z,3.60
2022-10-15T13:28:52.916Z,3.30
2022-10-15T13:31:26.058Z,3.47
2022-10-15T13:33:58.077Z,6.60
2022-10-15T13:36:28.301Z,3.23
2022-10-15T13:38:57.640Z,5.90
2022-10-15T13:41:29.610Z,5.60
2022-10-15T13:44:00.955Z,3.93
2022-10-15T13:46:29.736Z,4.27
2022-10-15T13:48:58.523Z,2.87
2022-10-15T13:51:29.620Z,2.73
2022-10-15T13:53:58.944Z,2.87
2022-10-15T13:56:27.914Z,5.73
2022-10-15T13:58:56.356Z,4.90
2022-10-15T14:01:33.399Z,4.43
2022-10-15T14:04:02.291Z,4.73
2022-10-15T14:06:32.228Z,4.47
2022-10-15T14:09:02.194Z,5.23
2022-10-15T14:11:39.358Z,3.80
2022-10-15T14:14:08.063Z,2.83
2022-10-15T14:16:37.700Z,2.77
2022-10-15T14:19:10.307Z,4.27
2022-10-15T14:21:39.967Z,2.60
2022-10-15T14:24:08.824Z,5.90
2022-10-15T14:26:39.123Z,2.90
2022-10-15T14:29:07.618Z,4.67
2022-10-15T14:31:39.258Z,3.63
2022-10-15T14:34:07.725Z,2.43
2022-10-15T14:36:43.672Z,5.10
2022-10-15T14:39:28.155Z,2.33
2022-10-15T14:41:57.448Z,2.03
2022-10-15T14:44:25.724Z,2.67
2022-10-15T14:46:54.840Z,3.90
2022-10-15T14:49:24.426Z,1.43
2022-10-15T14:51:58.149Z,3.73
2022-10-15T14:54:29.775Z,2.97
2022-10-15T14:56:58.066Z,5.00
2022-10-15T14:59:27.867Z,5.73
2022-10-15T15:01:59.981Z,4.83
2022-10-15T15:04:34.443Z,4.53
2022-10-15T15:07:04.178Z,3.40
2022-10-15T15:09:35.786Z,3.90
2022-10-15T15:12:04.029Z,3.80
2022-10-15T15:14:32.505Z,6.40
2022-10-15T15:17:03.783Z,4.63
2022-10-15T15:19:32.113Z,1.97
2022-10-15T15:22:00.859Z,3.37
2022-10-15T15:24:30.817Z,7.40
2022-10-15T15:26:59.546Z,3.90
2022-10-15T15:29:28.976Z,2.57
2022-10-15T15:31:58.006Z,4.83
2022-10-15T15:34:27.124Z,6.67
2022-10-15T15:36:55.680Z,3.60
2022-10-15T15:39:23.977Z,5.03
2022-10-15T15:41:53.841Z,5.60
2022-10-15T15:44:22.161Z,6.93
2022-10-15T15:46:55.124Z,5.40
2022-10-15T15:49:23.599Z,4.13
2022-10-15T15:51:52.043Z,6.43
2022-10-15T15:54:20.441Z,4.90
2022-10-15T15:56:48.769Z,4.70
2022-10-15T15:59:19.441Z,6.33
2022-10-15T16:01:48.884Z,9.07
2022-10-15T16:04:18.263Z,3.73
2022-10-15T16:06:48.839Z,6.27
2022-10-15T16:09:17.785Z,7.80
2022-10-15T16:11:46.774Z,5.00
2022-10-15T16:14:15.227Z,9.77
2022-10-15T16:16:45.396Z,6.20
2022-10-15T16:19:14.175Z,9.30
2022-10-15T16:21:42.497Z,7.87
2022-10-15T16:24:10.987Z,11.10
2022-10-15T16:26:39.302Z,10.40
2022-10-15T16:29:07.682Z,14.07
2022-10-15T16:31:36.982Z,9.87
2022-10-15T16:34:06.712Z,12.17
2022-10-15T16:36:35.964Z,11.37
2022-10-15T16:39:04.534Z,14.30
2022-10-15T16:41:32.883Z,10.13
2022-10-15T16:44:01.263Z,9.93
2022-10-15T16:46:29.696Z,10.40
2022-10-15T16:48:59.000Z,11.47
2022-10-15T16:51:28.924Z,9.07
2022-10-15T16:54:07.722Z,8.30
2022-10-15T16:56:38.446Z,8.80
2022-10-15T16:59:07.111Z,15.67
2022-10-15T17:01:35.990Z,11.83
2022-10-15T17:04:04.418Z,9.27
2022-10-15T17:06:34.678Z,11.90
2022-10-15T17:09:04.329Z,13.63
2022-10-15T17:11:35.543Z,8.67
2022-10-15T17:14:07.610Z,13.93
2022-10-15T17:16:37.637Z,12.10
2022-10-15T17:19:07.103Z,9.70
2022-10-15T17:21:36.817Z,8.73
2022-10-15T17:24:07.728Z,5.13
2022-10-15T17:26:40.738Z,8.50
2022-10-15T17:29:10.943Z,9.03
2022-10-15T17:31:39.304Z,6.53
2022-10-15T17:34:08.467Z,15.40
2022-10-15T17:36:45.145Z,7.73
2022-10-15T17:39:16.623Z,6.20
2022-10-15T17:41:50.633Z,6.67
2022-10-15T17:44:28.646Z,5.77
2022-10-15T17:47:00.555Z,9.23
2022-10-15T17:49:29.264Z,8.77
2022-10-15T17:51:59.389Z,5.43
2022-10-15T17:54:28.615Z,9.17
2022-10-15T17:56:57.041Z,8.40
2022-10-15T17:59:25.865Z,5.97
2022-10-15T18:01:59.272Z,10.93
2022-10-15T18:04:28.631Z,9.73
2022-10-15T18:06:57.067Z,7.33
2022-10-15T18:09:26.878Z,12.80
2022-10-15T18:11:55.348Z,6.20
2022-10-15T18:14:23.704Z,6.77
2022-10-15T18:16:52.055Z,8.47
2022-10-15T18:19:20.326Z,7.50
2022-10-15T18:21:49.804Z,6.53
2022-10-15T18:24:21.586Z,7.27
2022-10-15T18:26:51.956Z,8.10
2022-10-15T18:29:20.584Z,5.83
2022-10-15T18:31:52.336Z,8.03
2022-10-15T18:34:24.754Z,9.77
2022-10-15T18:36:53.036Z,7.53
2022-10-15T18:39:21.709Z,6.47
2022-10-15T18:41:50.117Z,6.90
2022-10-15T18:44:21.516Z,6.37
2022-10-15T18:46:50.187Z,5.03
2022-10-15T18:49:18.822Z,8.57
2022-10-15T18:51:50.731Z,8.53
2022-10-15T18:54:19.298Z,6.33
2022-10-15T18:56:47.685Z,7.27
2022-10-15T18:59:16.209Z,12.27
2022-10-15T19:01:46.063Z,6.57
2022-10-15T19:04:14.859Z,7.53
2022-10-15T19:06:43.544Z,5.17
2022-10-15T19:09:12.974Z,6.60
2022-10-15T19:11:41.439Z,7.17
2022-10-15T19:14:09.838Z,6.77
2022-10-15T19:16:38.313Z,3.57
2022-10-15T19:19:08.223Z,6.70
2022-10-15T19:21:37.657Z,7.50
2022-10-15T19:24:06.438Z,4.80
2022-10-15T19:26:35.204Z,6.30
2022-10-15T19:29:03.673Z,5.03
2022-10-15T19:31:32.471Z,7.03
2022-10-15T19:34:00.858Z,4.63
2022-10-15T19:36:31.828Z,9.03
2022-10-15T19:39:02.212Z,10.97
2022-10-15T19:41:30.675Z,6.10
2022-10-15T19:43:59.649Z,3.90
2022-10-15T19:46:29.348Z,8.90
2022-10-15T19:49:01.072Z,7.97
2022-10-15T19:51:31.578Z,5.40
2022-10-15T19:54:00.362Z,6.07
2022-10-15T19:56:28.752Z,6.57
2022-10-15T19:58:58.011Z,9.93
2022-10-15T20:01:26.664Z,10.73
2022-10-15T20:03:55.121Z,8.17
2022-10-15T20:06:23.765Z,5.57
2022-10-15T20:08:53.518Z,5.93
2022-10-15T20:11:22.087Z,4.03
2022-10-15T20:13:50.452Z,8.93
2022-10-15T20:16:22.315Z,6.27
2022-10-15T20:18:51.899Z,6.70
2022-10-15T20:21:20.291Z,7.47
2022-10-15T20:23:48.805Z,8.67
2022-10-15T20:26:18.673Z,7.90
2022-10-15T20:28:47.072Z,10.50
2022-10-15T20:31:16.939Z,5.90
2022-10-15T20:33:45.369Z,8.80
2022-10-15T20:36:15.086Z,8.73
2022-10-15T20:38:44.229Z,6.73
2022-10-15T20:41:12.967Z,6.53
2022-10-15T20:43:42.741Z,6.60
2022-10-15T20:46:12.664Z,5.10
2022-10-15T20:48:41.616Z,5.47
2022-10-15T20:51:10.103Z,6.63
2022-10-15T20:53:38.468Z,9.27
2022-10-15T20:56:07.167Z,9.00
2022-10-15T20:58:35.795Z,6.57
2022-10-15T21:01:07.667Z,8.00
2022-10-15T21:03:36.113Z,4.17
2022-10-15T21:06:04.393Z,8.73
2022-10-15T21:08:32.819Z,6.77
2022-10-15T21:11:04.779Z,6.17
2022-10-15T21:13:33.126Z,8.00
2022-10-15T21:16:01.803Z,5.23
2022-10-15T21:18:31.777Z,9.63
2022-10-15T21:21:03.601Z,5.37
2022-10-15T21:23:31.957Z,8.67
2022-10-15T21:26:05.295Z,7.60
2022-10-15T21:28:33.819Z,5.93
2022-10-15T21:31:08.249Z,5.77
2022-10-15T21:33:38.007Z,4.80
2022-10-15T21:36:12.937Z,10.33
2022-10-15T21:38:41.337Z,4.57
2022-10-15T21:41:10.049Z,9.20
2022-10-15T21:43:40.574Z,4.67
2022-10-15T21:46:09.143Z,3.43
2022-10-15T21:48:38.822Z,5.43
2022-10-15T21:51:07.253Z,3.40
2022-10-15T21:53:37.508Z,2.97
2022-10-15T21:56:08.057Z,3.37
2022-10-15T21:58:37.949Z,5.37
2022-10-15T22:01:12.490Z,3.00
2022-10-15T22:03:43.319Z,4.37
2022-10-15T22:06:11.631Z,3.67
2022-10-15T22:08:40.022Z,4.47
2022-10-15T22:11:11.820Z,4.17
2022-10-15T22:13:40.790Z,2.83
2022-10-15T22:16:10.079Z,4.57
2022-10-15T22:18:38.438Z,5.13
2022-10-15T22:21:15.872Z,2.37
2022-10-15T22:23:44.975Z,4.07
2022-10-15T22:26:13.696Z,4.20
2022-10-15T22:28:42.423Z,5.67
2022-10-15T22:31:11.438Z,3.13
2022-10-15T22:33:40.645Z,4.33
2022-10-15T22:36:13.178Z,6.33
2022-10-15T22:38:43.107Z,4.00
2022-10-15T22:41:11.643Z,7.37
2022-10-15T22:43:40.672Z,5.60
2022-10-15T22:46:09.060Z,4.93
2022-10-15T22:48:37.636Z,3.73
2022-10-15T22:51:06.183Z,6.23
2022-10-15T22:53:35.025Z,5.60
2022-10-15T22:56:05.152Z,5.07
2022-10-15T22:58:34.238Z,5.93
2022-10-15T23:01:07.820Z,3.37
2022-10-15T23:03:36.259Z,4.40
2022-10-15T23:06:04.753Z,3.67
2022-10-15T23:08:36.545Z,6.07
2022-10-15T23:11:10.721Z,4.87
2022-10-15T23:13:39.552Z,4.67
2022-10-15T23:16:08.870Z,5.93
2022-10-15T23:18:37.224Z,4.27
2022-10-15T23:21:06.704Z,3.77
2022-10-15T23:23:35.182Z,5.83
2022-10-15T23:26:03.686Z,3.40
2022-10-15T23:28:33.566Z,4.77
2022-10-15T23:31:01.963Z,4.70
2022-10-15T23:33:30.340Z,5.10
2022-10-15T23:36:01.592Z,4.73
2022-10-15T23:38:29.974Z,5.97
2022-10-15T23:41:01.950Z,3.03
2022-10-15T23:43:30.385Z,3.40
2022-10-15T23:46:00.543Z,2.50
2022-10-15T23:48:28.834Z,3.53
2022-10-15T23:51:00.919Z,3.50
2022-10-15T23:53:31.982Z,1.83
2022-10-15T23:56:02.791Z,4.97
2022-10-15T23:58:32.264Z,3.40
